Time;durP1;ratioP1;P1;durP2;ratioP2;P2;SDS_P1;SDS_P2;PMS_P1;PMS_P2;Temp;Humidity;BMP_temperature;BMP_pressure;BME280_temperature;BME280_humidity;BME280_pressure;Samples;Min_cycle;Max_cycle;Signal;HPM_P1;HPM_P2
2022/04/21 00:00:04;;;;;;;6.47;5.88;;;9.00;70.70;;;;;;5118943;28;20212;-82
2022/04/21 00:02:32;;;;;;;5.57;5.17;;;8.90;70.80;;;;;;5118367;28;20258;-81
2022/04/21 00:05:09;;;;;;;6.65;6.15;;;8.90;71.60;;;;;;5118511;28;20505;-81
2022/04/21 00:07:47;;;;;;;7.00;6.60;;;8.70;72.00;;;;;;5119444;28;20204;-81
2022/04/21 00:10:33;;;;;;;5.18;4.78;;;8.60;73.20;;;;;;5118190;28;20222;-81
2022/04/21 00:13:18;;;;;;;6.85;5.30;;;8.60;74.20;;;;;;5118715;28;20258;-81
2022/04/21 00:15:50;;;;;;;6.30;5.90;;;8.50;74.70;;;;;;5118327;28;20214;-82
2022/04/21 00:18:17;;;;;;;6.18;5.68;;;8.30;76.00;;;;;;5126921;28;20243;-82
2022/04/21 00:20:44;;;;;;;5.78;5.28;;;8.30;76.20;;;;;;5118549;28;20659;-81
2022/04/21 00:26:03;;;;;;;6.40;5.90;;;8.30;77.00;;;;;;5097418;28;20636;-82
2022/04/21 00:28:30;;;;;;;6.68;6.03;;;8.30;77.40;;;;;;5118763;28;20239;-82
2022/04/21 00:30:57;;;;;;;6.32;5.72;;;8.30;78.00;;;;;;5118098;28;20217;-82
2022/04/21 00:33:24;;;;;;;6.70;5.88;;;8.20;78.30;;;;;;5118520;28;20208;-81
2022/04/21 00:35:51;;;;;;;7.15;6.55;;;8.10;79.00;;;;;;5117952;28;20211;-81
2022/04/21 00:38:17;;;;;;;9.27;8.15;;;8.10;80.00;;;;;;5118521;28;20208;-81
2022/04/21 00:40:44;;;;;;;7.72;7.03;;;8.00;80.90;;;;;;5118465;28;20196;-81
2022/04/21 00:43:12;;;;;;;7.25;6.68;;;7.90;81.90;;;;;;5118225;28;20203;-81
2022/04/21 00:45:39;;;;;;;7.40;6.70;;;7.90;82.30;;;;;;5118320;28;20229;-81
2022/04/21 00:48:07;;;;;;;7.97;7.07;;;7.90;83.00;;;;;;5118386;28;20577;-81
2022/04/21 00:50:37;;;;;;;7.85;7.15;;;7.80;83.90;;;;;;5117175;28;20249;-82
2022/04/21 00:53:04;;;;;;;7.40;6.80;;;7.90;84.20;;;;;;5117952;28;20248;-81
2022/04/21 00:55:32;;;;;;;7.60;6.90;;;7.90;84.70;;;;;;5118067;28;20239;-82
2022/04/21 00:58:02;;;;;;;7.93;7.32;;;7.90;85.10;;;;;;5117543;28;20200;-82
2022/04/21 01:00:30;;;;;;;6.97;6.47;;;7.90;85.60;;;;;;5117670;28;20249;-81
2022/04/21 01:02:57;;;;;;;8.15;7.50;;;7.90;86.00;;;;;;5117485;28;20661;-82
2022/04/21 01:05:30;;;;;;;7.03;6.50;;;7.80;86.40;;;;;;5117383;28;20595;-81
2022/04/21 01:07:58;;;;;;;8.00;7.50;;;7.80;87.00;;;;;;5098024;28;20229;-81
2022/04/21 01:10:26;;;;;;;9.10;8.30;;;7.80;87.80;;;;;;5097158;28;20211;-81
2022/04/21 01:12:53;;;;;;;8.40;7.75;;;7.70;88.50;;;;;;5116606;28;20191;-82
2022/04/21 01:15:20;;;;;;;7.65;7.15;;;7.70;88.80;;;;;;5115533;28;20238;-81
2022/04/21 01:17:48;;;;;;;8.65;7.90;;;7.70;89.40;;;;;;5114438;28;20196;-81
2022/04/21 01:20:18;;;;;;;7.50;6.80;;;7.70;89.90;;;;;;5115000;28;20770;-81
2022/04/21 01:22:45;;;;;;;9.02;8.27;;;7.70;89.90;;;;;;5115031;28;20199;-81
2022/04/21 01:25:11;;;;;;;9.40;8.70;;;7.70;90.30;;;;;;5114709;28;20228;-81
2022/04/21 01:27:39;;;;;;;9.60;8.70;;;7.40;91.30;;;;;;5114798;28;20231;-81
2022/04/21 01:30:07;;;;;;;9.57;8.63;;;7.40;91.60;;;;;;5114794;28;20731;-81
2022/04/21 01:32:36;;;;;;;8.57;7.68;;;7.40;92.00;;;;;;5116954;28;20253;-82
2022/04/21 01:35:07;;;;;;;9.48;8.75;;;7.40;92.10;;;;;;5117240;28;20216;-81
2022/04/21 01:43:07;;;;;;;9.95;9.13;;;7.20;93.40;;;;;;5137160;27;20213;-81
2022/04/21 01:45:34;;;;;;;10.32;9.43;;;7.20;94.00;;;;;;5136456;27;20203;-81
2022/04/21 01:48:01;;;;;;;9.85;9.02;;;7.10;94.20;;;;;;5121522;27;20211;-81
2022/04/21 01:50:28;;;;;;;10.23;9.32;;;7.10;94.50;;;;;;5113271;28;20796;-81
2022/04/21 01:52:57;;;;;;;10.35;9.45;;;7.00;94.90;;;;;;5113808;28;20250;-81
2022/04/21 01:55:24;;;;;;;10.40;9.60;;;7.10;95.10;;;;;;5116452;28;20216;-81
2022/04/21 01:57:51;;;;;;;8.68;7.97;;;7.10;95.40;;;;;;5118435;28;20691;-81
2022/04/21 02:00:18;;;;;;;9.50;8.60;;;7.10;95.40;;;;;;5114382;28;20216;-81
2022/04/21 02:02:45;;;;;;;9.32;8.52;;;7.10;95.30;;;;;;5114471;28;20202;-81
2022/04/21 02:05:11;;;;;;;11.40;10.30;;;7.20;95.60;;;;;;5114404;28;20228;-81
2022/04/21 02:07:42;;;;;;;11.27;9.35;;;7.10;95.70;;;;;;5114614;28;20199;-81
2022/04/21 02:10:10;;;;;;;10.35;9.35;;;7.10;96.00;;;;;;5114544;28;20204;-81
2022/04/21 02:12:37;;;;;;;10.68;9.63;;;6.90;96.50;;;;;;5114268;28;20696;-81
2022/04/21 02:15:05;;;;;;;10.50;9.50;;;6.80;96.90;;;;;;5114332;28;20215;-81
2022/04/21 02:17:33;;;;;;;11.27;10.27;;;6.80;97.40;;;;;;5116310;28;20203;-81
2022/04/21 02:20:00;;;;;;;12.27;10.98;;;6.80;97.90;;;;;;5118327;28;20208;-80
2022/04/21 02:22:26;;;;;;;10.35;9.45;;;6.70;98.10;;;;;;5117967;28;20556;-81
2022/04/21 02:24:53;;;;;;;11.20;10.30;;;6.70;98.70;;;;;;5120165;28;20215;-82
2022/04/21 02:27:21;;;;;;;13.75;12.40;;;6.70;98.90;;;;;;5121179;28;20200;-81
2022/04/21 02:29:48;;;;;;;12.05;10.98;;;6.70;99.00;;;;;;5120876;28;20625;-81
2022/04/21 02:32:15;;;;;;;11.70;10.60;;;6.70;99.20;;;;;;5120961;28;20227;-81
2022/04/21 02:34:42;;;;;;;11.57;10.57;;;6.80;99.30;;;;;;5120324;28;20239;-81
2022/04/21 02:37:09;;;;;;;11.55;10.43;;;6.80;99.20;;;;;;5121381;28;20207;-81
2022/04/21 02:39:35;;;;;;;11.88;10.77;;;6.80;99.20;;;;;;5121041;28;20204;-81
2022/04/21 02:42:02;;;;;;;12.05;11.10;;;6.90;99.20;;;;;;5120535;28;20207;-81
2022/04/21 02:44:30;;;;;;;12.55;11.43;;;6.80;99.30;;;;;;5121192;28;20219;-81
2022/04/21 02:46:58;;;;;;;13.77;12.57;;;6.80;99.50;;;;;;5120390;28;20212;-81
2022/04/21 02:49:25;;;;;;;12.73;11.60;;;6.70;99.80;;;;;;5121099;28;20200;-81
2022/04/21 02:51:51;;;;;;;13.25;11.95;;;6.80;99.80;;;;;;5120200;28;20223;-82
2022/04/21 02:59:49;;;;;;;13.15;12.05;;;6.70;99.90;;;;;;5120750;28;20287;-82
2022/04/21 03:02:16;;;;;;;11.65;10.57;;;6.70;99.90;;;;;;5120437;28;20224;-81
2022/04/21 03:04:42;;;;;;;12.48;11.48;;;6.70;99.90;;;;;;5120700;28;20228;-82
2022/04/21 03:07:09;;;;;;;12.05;10.85;;;6.70;99.90;;;;;;5120079;28;20200;-81
2022/04/21 03:09:36;;;;;;;13.32;12.10;;;6.70;99.90;;;;;;5120708;28;20621;-81
2022/04/21 03:12:03;;;;;;;13.32;12.02;;;6.70;99.90;;;;;;5120188;28;20219;-81
2022/04/21 03:14:30;;;;;;;11.60;10.60;;;6.70;99.90;;;;;;5118140;28;20227;-81
2022/04/21 03:16:58;;;;;;;15.13;12.00;;;6.70;99.90;;;;;;5117290;28;20200;-81
2022/04/21 03:19:25;;;;;;;14.25;13.00;;;6.70;99.90;;;;;;5117706;28;20206;-81
2022/04/21 03:24:37;;;;;;;13.85;12.50;;;6.60;99.90;;;;;;5117504;28;20223;-81
2022/04/21 03:27:05;;;;;;;12.88;11.77;;;6.60;99.90;;;;;;5117398;28;20204;-81
2022/04/21 03:29:37;;;;;;;14.30;13.00;;;6.60;99.90;;;;;;5117738;28;20192;-81
2022/04/21 03:32:09;;;;;;;12.70;11.70;;;6.70;99.90;;;;;;5116435;28;20629;-81
2022/04/21 03:34:37;;;;;;;12.95;11.70;;;6.70;99.90;;;;;;5120707;28;20283;-81
2022/04/21 03:37:04;;;;;;;12.98;11.82;;;6.70;99.90;;;;;;5121813;28;20210;-81
2022/04/21 03:39:30;;;;;;;12.98;11.73;;;6.80;99.90;;;;;;5120125;28;20199;-81
2022/04/21 03:41:57;;;;;;;13.80;12.63;;;6.80;99.90;;;;;;5120316;28;20200;-81
2022/04/21 03:44:24;;;;;;;14.73;13.32;;;6.70;99.90;;;;;;5120270;28;20227;-81
2022/04/21 03:46:51;;;;;;;14.43;12.80;;;6.70;99.90;;;;;;5120583;28;20227;-81
2022/04/21 03:49:19;;;;;;;13.05;11.82;;;6.70;99.90;;;;;;5120080;28;20199;-81
2022/04/21 03:51:46;;;;;;;14.23;12.85;;;6.70;99.90;;;;;;5119859;28;20226;-81
2022/04/21 03:54:13;;;;;;;14.50;13.18;;;6.80;99.90;;;;;;5120580;28;20230;-81
2022/04/21 03:56:39;;;;;;;13.27;12.30;;;6.80;99.90;;;;;;5119817;28;20199;-81
2022/04/21 03:59:06;;;;;;;13.48;12.38;;;6.80;99.90;;;;;;5119310;28;20203;-81
2022/04/21 04:01:33;;;;;;;13.52;12.52;;;6.80;99.90;;;;;;5118920;28;20196;-81
2022/04/21 04:03:59;;;;;;;12.85;11.85;;;6.80;99.90;;;;;;5119508;28;20511;-81
2022/04/21 04:11:56;;;;;;;13.82;12.63;;;6.50;99.90;;;;;;5119013;28;20704;-81
2022/04/21 04:14:22;;;;;;;15.20;13.80;;;6.50;99.90;;;;;;5119520;28;20642;-81
2022/04/21 04:16:49;;;;;;;15.45;14.05;;;6.50;99.90;;;;;;5119441;28;20562;-81
2022/04/21 04:19:16;;;;;;;14.75;13.45;;;6.40;99.90;;;;;;5119234;28;20208;-81
2022/04/21 04:21:44;;;;;;;13.32;12.07;;;6.30;99.90;;;;;;5117937;28;20196;-81
2022/04/21 04:24:10;;;;;;;15.02;13.68;;;6.40;99.90;;;;;;5116181;28;20231;-81
2022/04/21 04:26:37;;;;;;;14.20;12.90;;;6.40;99.90;;;;;;5116399;28;20604;-81
2022/04/21 04:29:05;;;;;;;15.20;13.70;;;6.30;99.90;;;;;;5116312;28;20203;-81
2022/04/21 04:31:31;;;;;;;14.48;13.10;;;6.40;99.90;;;;;;5115696;28;20220;-81
2022/04/21 04:33:58;;;;;;;15.60;14.40;;;6.40;99.90;;;;;;5116274;28;20220;-81
2022/04/21 04:36:25;;;;;;;15.38;13.75;;;6.40;99.90;;;;;;5115718;28;20681;-81
2022/04/21 04:38:53;;;;;;;15.10;13.77;;;6.40;99.90;;;;;;5116130;28;20214;-81
2022/04/21 04:44:04;;;;;;;14.85;13.45;;;6.20;99.90;;;;;;5114972;28;20699;-78
2022/04/21 04:46:36;;;;;;;17.55;14.95;;;6.20;99.90;;;;;;5116392;28;20208;-81
2022/04/21 04:49:04;;;;;;;15.77;14.23;;;6.20;99.90;;;;;;5117985;28;20229;-81
2022/04/21 04:51:31;;;;;;;14.40;13.00;;;6.20;99.90;;;;;;5117356;28;20248;-81
2022/04/21 04:53:59;;;;;;;16.95;13.50;;;6.20;99.90;;;;;;5117499;28;20659;-79
2022/04/21 04:56:27;;;;;;;15.52;14.02;;;6.30;99.90;;;;;;5116877;28;20204;-79
2022/04/21 04:58:54;;;;;;;13.65;12.48;;;6.20;99.90;;;;;;5117526;28;20214;-79
2022/04/21 05:01:27;;;;;;;15.93;14.43;;;6.30;99.90;;;;;;5118387;28;20683;-79
2022/04/21 05:04:00;;;;;;;17.63;15.90;;;6.40;99.90;;;;;;5128915;28;20220;-78
2022/04/21 05:06:26;;;;;;;19.85;15.68;;;6.40;99.90;;;;;;5129742;28;20222;-79
2022/04/21 05:08:53;;;;;;;17.10;13.90;;;6.40;99.90;;;;;;5118540;28;20206;-79
2022/04/21 05:11:21;;;;;;;17.98;16.17;;;6.50;99.90;;;;;;5118346;28;20207;-79
2022/04/21 05:13:48;;;;;;;16.40;14.75;;;6.50;99.90;;;;;;5116156;28;20216;-79
2022/04/21 05:16:14;;;;;;;15.05;13.70;;;6.60;99.90;;;;;;5108497;28;20201;-80
2022/04/21 05:18:41;;;;;;;15.73;14.23;;;6.60;99.90;;;;;;5106239;28;20204;-80
2022/04/21 05:21:09;;;;;;;15.98;14.38;;;6.60;99.90;;;;;;5107221;28;20289;-80
2022/04/21 05:23:37;;;;;;;16.80;14.95;;;6.60;99.90;;;;;;5107567;28;20227;-81
2022/04/21 05:26:04;;;;;;;15.88;14.38;;;6.70;99.90;;;;;;5109024;28;20212;-81
2022/04/21 05:28:33;;;;;;;15.85;14.38;;;6.70;99.90;;;;;;5106349;28;20200;-80
2022/04/21 05:31:00;;;;;;;15.13;13.60;;;6.70;99.90;;;;;;5106968;28;20232;-80
2022/04/21 05:33:29;;;;;;;16.58;14.88;;;6.80;99.90;;;;;;5107546;28;20239;-80
2022/04/21 05:35:57;;;;;;;17.10;15.50;;;6.90;99.90;;;;;;5109903;28;20704;-80
2022/04/21 05:38:24;;;;;;;15.93;14.43;;;7.00;99.90;;;;;;5110332;28;20206;-80
2022/04/21 05:40:52;;;;;;;17.35;12.85;;;7.10;99.90;;;;;;5107046;28;20207;-80
2022/04/21 05:43:23;;;;;;;15.52;14.10;;;7.10;99.90;;;;;;5110482;28;20196;-81
2022/04/21 05:45:51;;;;;;;17.20;15.43;;;7.20;99.90;;;;;;5118405;28;20268;-82
2022/04/21 05:48:19;;;;;;;15.15;13.50;;;7.10;99.90;;;;;;5120646;28;20200;-82
2022/04/21 05:50:48;;;;;;;15.57;14.07;;;7.20;99.90;;;;;;5121240;28;20208;-81
2022/04/21 05:53:20;;;;;;;16.13;14.48;;;7.20;99.90;;;;;;5124601;28;20219;-81
2022/04/21 05:55:47;;;;;;;18.23;14.88;;;7.40;99.90;;;;;;5124888;28;20664;-79
2022/04/21 05:58:14;;;;;;;17.67;14.88;;;7.50;99.90;;;;;;5123675;28;20315;-79
2022/04/21 06:00:42;;;;;;;17.75;15.88;;;7.40;99.90;;;;;;5122588;28;20229;-81
2022/04/21 06:03:12;;;;;;;16.85;15.15;;;7.40;99.90;;;;;;5121901;28;20681;-80
2022/04/21 06:05:43;;;;;;;19.10;16.75;;;7.50;99.90;;;;;;5122988;28;20356;-82
2022/04/21 06:08:14;;;;;;;16.38;14.65;;;7.70;99.90;;;;;;5121768;28;20223;-81
2022/04/21 06:10:42;;;;;;;18.80;16.90;;;7.90;99.90;;;;;;5123358;28;20206;-82
2022/04/21 06:13:08;;;;;;;17.85;16.20;;;7.90;99.90;;;;;;5122860;28;20235;-81
2022/04/21 06:15:40;;;;;;;17.15;15.35;;;8.10;99.90;;;;;;5122800;27;20223;-81
2022/04/21 06:18:07;;;;;;;18.00;16.05;;;8.20;99.90;;;;;;5123284;28;20236;-81
2022/04/21 06:20:36;;;;;;;17.17;15.48;;;8.30;99.90;;;;;;5122230;28;20199;-81
2022/04/21 06:23:06;;;;;;;14.93;13.45;;;8.30;99.70;;;;;;5123654;28;20207;-81
2022/04/21 06:25:34;;;;;;;16.92;14.20;;;8.40;99.50;;;;;;5122141;27;20221;-81
2022/04/21 06:28:00;;;;;;;15.85;14.35;;;8.50;99.70;;;;;;5122596;28;20253;-81
2022/04/21 06:30:29;;;;;;;15.40;14.20;;;8.60;99.50;;;;;;5121758;28;20223;-81
2022/04/21 06:32:55;;;;;;;16.20;14.75;;;8.70;98.90;;;;;;5122083;28;20222;-81
2022/04/21 06:35:25;;;;;;;16.40;14.60;;;8.80;98.60;;;;;;5122888;27;20220;-81
2022/04/21 06:37:53;;;;;;;15.98;14.38;;;8.90;97.50;;;;;;5123152;28;20816;-81
2022/04/21 06:40:20;;;;;;;16.15;14.70;;;9.00;97.30;;;;;;5122269;28;20224;-81
2022/04/21 06:42:51;;;;;;;15.82;14.50;;;9.10;96.70;;;;;;5122669;28;20214;-81
2022/04/21 06:48:06;;;;;;;15.02;13.68;;;9.30;96.70;;;;;;5122735;28;20246;-81
2022/04/21 06:50:34;;;;;;;16.50;14.90;;;9.20;96.50;;;;;;5122166;28;20213;-81
2022/04/21 06:53:10;;;;;;;15.67;14.17;;;9.30;95.80;;;;;;5126069;28;20495;-80
2022/04/21 06:55:41;;;;;;;16.48;14.52;;;9.40;95.70;;;;;;5122148;28;20896;-82
2022/04/21 06:58:08;;;;;;;13.57;12.27;;;9.40;95.70;;;;;;5122421;28;20203;-81
2022/04/21 07:00:41;;;;;;;15.30;14.00;;;9.50;95.70;;;;;;5121207;28;20526;-80
2022/04/21 07:03:08;;;;;;;16.07;14.47;;;9.60;95.20;;;;;;5120646;28;20445;-82
2022/04/21 07:05:35;;;;;;;15.00;13.70;;;9.70;94.90;;;;;;5121612;28;20914;-82
2022/04/21 07:08:04;;;;;;;15.52;14.20;;;9.80;94.20;;;;;;5121935;28;20216;-81
2022/04/21 07:10:31;;;;;;;15.93;14.47;;;10.00;93.80;;;;;;5121377;28;20222;-81
2022/04/21 07:13:07;;;;;;;15.60;14.27;;;10.00;93.20;;;;;;5122017;28;20479;-81
2022/04/21 07:15:37;;;;;;;17.30;15.60;;;10.00;93.30;;;;;;5122060;28;20519;-82
2022/04/21 07:18:12;;;;;;;15.97;14.47;;;10.00;93.60;;;;;;5122197;28;20491;-82
2022/04/21 07:20:39;;;;;;;15.17;13.63;;;10.10;93.40;;;;;;5120403;28;20498;-81
2022/04/21 07:23:08;;;;;;;15.47;14.00;;;10.10;93.20;;;;;;5120890;28;20483;-80
2022/04/21 07:25:35;;;;;;;15.97;14.37;;;10.20;92.90;;;;;;5121225;28;20493;-81
2022/04/21 07:28:04;;;;;;;15.03;13.63;;;10.20;92.70;;;;;;5121292;27;20444;-80
2022/04/21 07:30:31;;;;;;;16.37;14.77;;;10.30;92.60;;;;;;5119275;28;20453;-82
2022/04/21 07:33:01;;;;;;;14.97;13.57;;;10.40;93.10;;;;;;5119824;28;20505;-81
2022/04/21 07:35:37;;;;;;;14.93;13.40;;;10.50;92.50;;;;;;5125468;28;20484;-82
2022/04/21 07:38:07;;;;;;;15.77;14.30;;;10.50;92.20;;;;;;5127819;28;20454;-82
2022/04/21 07:40:47;;;;;;;15.73;14.10;;;10.60;92.30;;;;;;5120043;28;20427;-84
2022/04/21 07:43:15;;;;;;;14.97;13.77;;;10.70;92.30;;;;;;5119677;28;20471;-84
2022/04/21 07:45:44;;;;;;;14.83;13.43;;;10.80;92.30;;;;;;5120556;28;20465;-83
2022/04/21 07:48:21;;;;;;;15.17;13.43;;;10.90;91.80;;;;;;5120487;28;20515;-83
2022/04/21 07:50:50;;;;;;;14.33;13.03;;;10.90;91.50;;;;;;5117749;28;20448;-83
2022/04/21 07:53:18;;;;;;;15.80;14.23;;;11.00;91.70;;;;;;5115800;28;20999;-83
2022/04/21 07:55:58;;;;;;;13.77;12.60;;;11.00;91.00;;;;;;5115864;28;20521;-82
2022/04/21 07:58:27;;;;;;;15.80;14.23;;;11.10;90.90;;;;;;5116839;28;20470;-83
2022/04/21 08:00:56;;;;;;;13.87;12.50;;;11.20;90.60;;;;;;5118410;28;20457;-82
2022/04/21 08:03:24;;;;;;;15.57;14.03;;;11.30;90.40;;;;;;5117722;28;20448;-83
2022/04/21 08:09:15;;;;;;;14.20;12.03;;;11.40;89.20;;;;;;5119016;28;20461;-81
2022/04/21 08:11:41;;;;;;;13.97;12.77;;;11.30;89.00;;;;;;5119756;28;20449;-80
2022/04/21 08:14:08;;;;;;;13.07;11.87;;;11.10;89.40;;;;;;5119496;28;20487;-81
2022/04/21 08:16:35;;;;;;;12.63;11.40;;;11.20;90.00;;;;;;5119349;28;21048;-81
2022/04/21 08:19:03;;;;;;;15.17;13.57;;;11.30;90.80;;;;;;5119780;28;20446;-81
2022/04/21 08:21:29;;;;;;;12.57;11.30;;;11.40;90.20;;;;;;5119860;28;20425;-80
2022/04/21 08:32:33;;;;;;;12.07;10.97;;;11.40;89.80;;;;;;5120212;28;20457;-81
2022/04/21 08:34:57;;;;;;;13.90;12.23;;;11.90;88.10;;;;;;5113756;28;20493;-81
2022/04/21 08:37:23;;;;;;;16.10;11.33;;;12.00;90.00;;;;;;5122015;28;20857;-80
2022/04/21 08:39:50;;;;;;;13.80;12.50;;;12.10;88.40;;;;;;5121657;28;20449;-81
2022/04/21 08:42:20;;;;;;;12.57;11.47;;;12.30;88.10;;;;;;5120596;28;20453;-81
2022/04/21 08:44:50;;;;;;;13.20;12.00;;;12.20;86.30;;;;;;5120807;27;20461;-81
2022/04/21 08:47:21;;;;;;;11.17;10.17;;;12.30;88.00;;;;;;5120056;28;20464;-82
2022/04/21 08:49:49;;;;;;;12.13;10.93;;;12.20;86.30;;;;;;5119858;28;20445;-81
2022/04/21 08:52:17;;;;;;;12.03;11.03;;;12.30;89.30;;;;;;5121380;28;20745;-81
2022/04/21 08:54:44;;;;;;;12.33;11.17;;;12.50;90.20;;;;;;5119188;28;20901;-82
2022/04/21 08:57:12;;;;;;;13.40;12.10;;;12.50;87.80;;;;;;5127302;27;20453;-80
2022/04/21 08:59:41;;;;;;;11.43;9.83;;;12.60;87.10;;;;;;5119387;28;20446;-81
2022/04/21 09:02:10;;;;;;;12.90;11.70;;;12.70;85.90;;;;;;5113660;28;20538;-81
2022/04/21 09:04:37;;;;;;;10.67;9.57;;;12.80;86.30;;;;;;5114361;28;20481;-80
2022/04/21 09:07:25;;;;;;;11.20;10.20;;;12.80;83.90;;;;;;5114133;28;20874;-81
2022/04/21 09:10:11;;;;;;;12.57;11.53;;;13.00;83.20;;;;;;5108737;27;20458;-81
2022/04/21 09:12:42;;;;;;;10.37;9.50;;;13.10;82.30;;;;;;5115398;28;20472;-81
2022/04/21 09:15:14;;;;;;;11.00;10.00;;;12.90;79.60;;;;;;5115661;28;20481;-80
2022/04/21 09:17:42;;;;;;;14.27;9.07;;;13.10;81.90;;;;;;5115153;28;20424;-80
2022/04/21 09:20:11;;;;;;;12.00;10.17;;;12.80;78.00;;;;;;5113308;28;20453;-81
2022/04/21 09:22:43;;;;;;;10.00;9.00;;;12.90;81.10;;;;;;5112357;28;20466;-80
2022/04/21 09:25:11;;;;;;;10.63;9.70;;;13.20;81.40;;;;;;5112927;28;20549;-81
2022/04/21 09:27:43;;;;;;;14.30;10.53;;;13.40;81.90;;;;;;5118277;28;20525;-82
2022/04/21 09:30:13;;;;;;;10.63;9.73;;;13.50;78.80;;;;;;5115506;28;20449;-80
2022/04/21 09:32:42;;;;;;;9.73;8.73;;;13.70;81.10;;;;;;5116326;28;20499;-80
2022/04/21 09:35:10;;;;;;;11.13;10.13;;;14.00;81.50;;;;;;5115100;28;20492;-80
2022/04/21 09:37:48;;;;;;;12.57;11.20;;;13.90;75.20;;;;;;5116247;28;20453;-81
2022/04/21 09:40:36;;;;;;;10.37;9.47;;;13.80;76.00;;;;;;5118386;28;20457;-82
2022/04/21 09:43:06;;;;;;;9.77;8.97;;;13.90;75.70;;;;;;5118037;28;20447;-82
2022/04/21 09:48:26;;;;;;;11.17;10.33;;;14.20;78.20;;;;;;5117645;28;20454;-82
2022/04/21 09:50:55;;;;;;;10.97;10.07;;;14.50;76.90;;;;;;5116559;28;20452;-82
2022/04/21 09:53:24;;;;;;;9.63;8.83;;;14.60;73.70;;;;;;5114932;28;20482;-82
2022/04/21 09:56:06;;;;;;;9.70;8.90;;;14.50;73.90;;;;;;5117170;28;20449;-81
2022/04/21 09:58:37;;;;;;;11.13;10.10;;;14.60;73.50;;;;;;5115484;28;20490;-78
2022/04/21 10:01:05;;;;;;;10.00;9.17;;;14.80;74.50;;;;;;5093269;28;20443;-78
2022/04/21 10:03:33;;;;;;;9.63;8.93;;;15.00;76.50;;;;;;5097596;28;20437;-78
2022/04/21 10:06:00;;;;;;;10.10;9.30;;;14.90;71.80;;;;;;5115449;28;20442;-78
2022/04/21 10:08:29;;;;;;;10.23;9.43;;;15.10;71.90;;;;;;5113874;28;20445;-78
2022/04/21 10:10:56;;;;;;;9.33;8.63;;;15.20;72.60;;;;;;5111845;28;20450;-78
2022/04/21 10:13:23;;;;;;;11.37;10.20;;;15.40;71.60;;;;;;5116435;28;20502;-78
2022/04/21 10:15:51;;;;;;;9.57;8.77;;;15.30;70.50;;;;;;5119478;28;20446;-81
2022/04/21 10:18:23;;;;;;;11.00;10.10;;;15.10;69.20;;;;;;5117593;28;20455;-81
2022/04/21 10:21:07;;;;;;;9.17;8.37;;;15.40;70.80;;;;;;5116320;28;20486;-83
2022/04/21 10:24:14;;;;;;;9.77;8.93;;;15.70;71.00;;;;;;5118577;28;20494;-84
2022/04/21 10:30:19;;;;;;;9.20;8.30;;;16.00;68.50;;;;;;5119070;28;20438;-82
2022/04/21 10:32:51;;;;;;;7.90;7.30;;;16.10;69.30;;;;;;5121040;28;20462;-83
2022/04/21 10:38:36;;;;;;;9.00;8.40;;;16.00;67.20;;;;;;5155947;27;20503;-82
2022/04/21 10:41:41;;;;;;;7.90;7.30;;;16.60;69.20;;;;;;5134539;27;20447;-82
2022/04/21 10:44:26;;;;;;;6.47;5.97;;;16.80;68.40;;;;;;5130654;27;20483;-83
2022/04/21 10:47:35;;;;;;;6.73;6.20;;;16.80;65.90;;;;;;5128864;28;20439;-79
2022/04/21 10:50:03;;;;;;;6.40;6.00;;;16.80;65.70;;;;;;5138746;28;20823;-80
2022/04/21 10:58:49;;;;;;;7.63;7.03;;;17.70;65.20;;;;;;5139818;28;20593;-80
2022/04/21 11:01:31;;;;;;;6.70;6.20;;;18.20;63.50;;;;;;5099891;22;20499;-83
2022/04/21 11:04:19;;;;;;;7.20;6.70;;;18.10;62.10;;;;;;5063047;28;20476;-82
2022/04/21 11:06:47;;;;;;;6.37;5.77;;;18.50;63.00;;;;;;5068161;28;20556;-83
2022/04/21 11:09:35;;;;;;;5.43;5.00;;;18.60;62.10;;;;;;5078439;28;20944;-85
2022/04/21 11:12:04;;;;;;;7.00;6.50;;;18.90;59.50;;;;;;5035833;28;20483;-85
2022/04/21 11:14:32;;;;;;;8.13;7.53;;;18.60;59.00;;;;;;5048690;28;20868;-84
2022/04/21 11:16:59;;;;;;;7.47;6.87;;;18.60;59.60;;;;;;5062872;28;20491;-84
2022/04/21 11:19:35;;;;;;;7.23;6.63;;;19.00;61.60;;;;;;5062153;28;20445;-84
2022/04/21 11:22:03;;;;;;;8.73;8.13;;;19.70;59.20;;;;;;5057135;28;20473;-84
2022/04/21 11:25:06;;;;;;;6.40;5.90;;;20.40;57.50;;;;;;5059295;28;20455;-82
2022/04/21 11:27:41;;;;;;;5.50;5.17;;;21.10;57.90;;;;;;5065955;28;20443;-83
2022/04/21 11:30:10;;;;;;;6.93;6.43;;;22.10;57.70;;;;;;5065740;28;20464;-82
2022/04/21 11:32:37;;;;;;;5.83;5.53;;;23.20;54.90;;;;;;5061203;28;20455;-83
2022/04/21 11:35:06;;;;;;;5.20;4.90;;;24.00;51.60;;;;;;5065965;28;20475;-82
2022/04/21 11:37:55;;;;;;;5.20;4.80;;;24.90;51.40;;;;;;5064951;28;20481;-82
2022/04/21 11:40:27;;;;;;;5.13;4.73;;;25.70;47.40;;;;;;5061666;28;20505;-83
2022/04/21 11:42:57;;;;;;;5.60;5.20;;;26.40;46.00;;;;;;5065122;28;20432;-82
2022/04/21 11:45:25;;;;;;;4.97;4.67;;;26.60;44.20;;;;;;5067055;28;20470;-81
2022/04/21 11:47:52;;;;;;;5.60;5.20;;;26.60;43.90;;;;;;5038785;28;20456;-83
2022/04/21 11:50:29;;;;;;;5.20;4.90;;;26.30;43.30;;;;;;5027997;28;20502;-81
2022/04/21 11:52:58;;;;;;;5.47;4.97;;;26.20;43.80;;;;;;5028621;28;20449;-84
2022/04/21 11:55:27;;;;;;;5.07;4.67;;;26.00;43.40;;;;;;5024611;28;20500;-81
2022/04/21 11:57:55;;;;;;;5.83;5.43;;;25.20;44.30;;;;;;5043989;28;20479;-81
2022/04/21 12:08:39;;;;;;;3.13;2.73;;;23.40;44.30;;;;;;5049911;28;20420;-83
2022/04/21 12:11:10;;;;;;;3.33;3.13;;;23.60;44.80;;;;;;5049184;28;20492;-83
2022/04/21 12:13:38;;;;;;;3.17;3.00;;;23.30;43.70;;;;;;5044807;28;20453;-83
2022/04/21 12:16:06;;;;;;;3.10;2.90;;;23.30;45.10;;;;;;5026206;28;20459;-83
2022/04/21 12:18:48;;;;;;;3.53;3.27;;;23.50;46.20;;;;;;5027231;28;20967;-83
2022/04/21 12:21:14;;;;;;;4.60;4.30;;;23.50;45.50;;;;;;5031679;28;20458;-84
2022/04/21 12:23:41;;;;;;;2.50;2.40;;;23.70;44.70;;;;;;5034253;28;20457;-82
2022/04/21 12:26:08;;;;;;;4.90;2.80;;;23.90;44.90;;;;;;5052466;28;20446;-81
2022/04/21 12:28:48;;;;;;;3.20;3.00;;;23.90;44.80;;;;;;5053476;28;20449;-81
2022/04/21 12:31:19;;;;;;;3.20;2.93;;;22.60;45.40;;;;;;5050023;28;20465;-83
2022/04/21 12:33:45;;;;;;;3.50;3.30;;;22.20;45.50;;;;;;5047392;28;20948;-82
2022/04/21 12:36:12;;;;;;;2.43;2.30;;;21.20;45.60;;;;;;5047135;28;20458;-81
2022/04/21 12:38:57;;;;;;;2.30;2.20;;;21.30;47.30;;;;;;5049123;28;20458;-81
2022/04/21 12:41:24;;;;;;;1.67;1.57;;;21.30;46.60;;;;;;5047142;28;20482;-81
2022/04/21 12:43:52;;;;;;;3.20;2.43;;;21.10;46.40;;;;;;5047533;28;20460;-83
2022/04/21 12:46:20;;;;;;;1.60;1.50;;;20.90;47.20;;;;;;5046004;28;20455;-82
2022/04/21 12:48:48;;;;;;;3.17;2.03;;;21.00;47.10;;;;;;5047198;28;20495;-83
2022/04/21 12:51:19;;;;;;;1.63;1.53;;;21.00;46.30;;;;;;5048210;28;20469;-82
2022/04/21 12:53:45;;;;;;;1.63;1.53;;;20.30;45.80;;;;;;5046530;28;20451;-81
2022/04/21 12:56:14;;;;;;;2.43;2.00;;;20.10;48.30;;;;;;5045704;28;20453;-80
2022/04/21 12:58:44;;;;;;;2.63;2.43;;;20.30;48.80;;;;;;5051012;28;20482;-82
2022/04/21 13:01:12;;;;;;;2.50;2.10;;;20.50;48.30;;;;;;5046371;28;20490;-81
2022/04/21 13:03:40;;;;;;;2.33;1.83;;;20.70;48.00;;;;;;5042743;28;20461;-83
2022/04/21 13:06:07;;;;;;;2.43;2.23;;;21.10;47.30;;;;;;5042130;28;20477;-81
2022/04/21 13:08:33;;;;;;;1.90;1.80;;;21.30;47.80;;;;;;5032135;28;20447;-79
2022/04/21 13:11:00;;;;;;;2.63;2.43;;;21.90;48.30;;;;;;5024035;28;20480;-80
2022/04/21 13:13:27;;;;;;;2.37;2.17;;;22.40;47.20;;;;;;5019513;28;20456;-81
2022/04/21 13:15:55;;;;;;;2.37;2.17;;;22.80;45.90;;;;;;5020120;28;20461;-80
2022/04/21 13:18:23;;;;;;;3.13;2.10;;;23.00;44.90;;;;;;5034029;28;20487;-81
2022/04/21 13:23:34;;;;;;;2.30;2.20;;;22.70;44.50;;;;;;5035081;28;20453;-80
2022/04/21 13:26:01;;;;;;;2.20;2.10;;;22.50;44.60;;;;;;5038975;28;20463;-81
2022/04/21 13:28:28;;;;;;;2.60;2.40;;;23.10;45.70;;;;;;5041918;28;20456;-80
2022/04/21 13:33:37;;;;;;;2.60;2.40;;;23.40;43.60;;;;;;5044289;28;20540;-80
2022/04/21 13:36:06;;;;;;;2.93;2.20;;;23.60;44.50;;;;;;5045429;28;20460;-81
2022/04/21 13:38:33;;;;;;;3.00;2.70;;;24.10;44.10;;;;;;5045175;28;20483;-81
2022/04/21 13:41:00;;;;;;;2.90;2.53;;;24.30;43.40;;;;;;5044644;28;20478;-82
2022/04/21 13:43:27;;;;;;;3.47;3.17;;;24.60;43.50;;;;;;5044729;28;20449;-82
2022/04/21 13:45:56;;;;;;;3.00;2.57;;;24.90;43.70;;;;;;5050839;28;20477;-82
2022/04/21 13:48:23;;;;;;;2.90;2.70;;;25.70;42.60;;;;;;5050442;28;20445;-82
2022/04/21 13:50:51;;;;;;;2.60;2.40;;;26.10;41.70;;;;;;5048473;28;20465;-82
2022/04/21 13:53:18;;;;;;;3.13;2.47;;;26.50;40.40;;;;;;5048849;28;20528;-82
2022/04/21 13:55:45;;;;;;;2.70;2.60;;;26.80;38.90;;;;;;5042317;28;20813;-81
2022/04/21 13:58:12;;;;;;;3.17;2.30;;;26.80;38.90;;;;;;5039830;28;20650;-83
2022/04/21 14:00:44;;;;;;;3.17;2.87;;;26.60;39.40;;;;;;5039170;28;21105;-84